sensor_id;sensor_type;location;lat;lon;timestamp;pressure;altitude;pressure_sealevel;temperature;humidity
17505;BME280;8870;50.950;11.762;2023-04-07T00:05:21;98410.72;;;3.29;100.00
17505;BME280;8870;50.950;11.762;2023-04-07T00:10:40;98410.44;;;3.21;100.00
17505;BME280;8870;50.950;11.762;2023-04-07T00:16:12;98407.47;;;3.13;100.00
17505;BME280;8870;50.950;11.762;2023-04-07T00:21:33;98405.03;;;2.98;100.00
17505;BME280;8870;50.950;11.762;2023-04-07T00:27:05;98404.28;;;2.96;100.00
17505;BME280;8870;50.950;11.762;2023-04-07T00:32:26;98396.63;;;2.91;100.00
17505;BME280;8870;50.950;11.762;2023-04-07T00:38:03;98387.69;;;2.92;100.00
17505;BME280;8870;50.950;11.762;2023-04-07T00:43:22;98387.78;;;2.91;100.00
17505;BME280;8870;50.950;11.762;2023-04-07T00:48:57;98389.72;;;2.89;100.00
17505;BME280;8870;50.950;11.762;2023-04-07T00:54:22;98378.56;;;2.84;100.00
17505;BME280;8870;50.950;11.762;2023-04-07T00:59:55;98375.31;;;2.80;100.00
17505;BME280;8870;50.950;11.762;2023-04-07T01:05:15;98376.59;;;2.74;100.00
17505;BME280;8870;50.950;11.762;2023-04-07T01:10:55;98373.88;;;2.63;100.00
17505;BME280;8870;50.950;11.762;2023-04-07T01:16:21;98377.53;;;2.49;100.00
17505;BME280;8870;50.950;11.762;2023-04-07T01:21:56;98372.38;;;2.35;100.00
17505;BME280;8870;50.950;11.762;2023-04-07T01:27:28;98379.28;;;2.24;100.00
17505;BME280;8870;50.950;11.762;2023-04-07T01:33:08;98370.28;;;2.14;100.00
17505;BME280;8870;50.950;11.762;2023-04-07T01:38:28;98367.00;;;2.10;100.00
17505;BME280;8870;50.950;11.762;2023-04-07T01:44:00;98364.78;;;2.04;100.00
17505;BME280;8870;50.950;11.762;2023-04-07T01:49:24;98357.88;;;1.89;100.00
17505;BME280;8870;50.950;11.762;2023-04-07T01:54:56;98361.81;;;1.83;100.00
17505;BME280;8870;50.950;11.762;2023-04-07T02:00:23;98359.69;;;1.75;100.00
17505;BME280;8870;50.950;11.762;2023-04-07T02:06:05;98358.19;;;1.71;100.00
17505;BME280;8870;50.950;11.762;2023-04-07T02:11:25;98354.28;;;1.64;100.00
17505;BME280;8870;50.950;11.762;2023-04-07T02:16:58;98356.81;;;1.65;100.00
17505;BME280;8870;50.950;11.762;2023-04-07T02:22:20;98351.41;;;1.67;100.00
17505;BME280;8870;50.950;11.762;2023-04-07T02:27:52;98351.00;;;1.60;100.00
17505;BME280;8870;50.950;11.762;2023-04-07T02:33:11;98351.72;;;1.49;100.00
17505;BME280;8870;50.950;11.762;2023-04-07T02:38:44;98347.69;;;1.44;100.00
17505;BME280;8870;50.950;11.762;2023-04-07T02:44:03;98351.97;;;1.46;100.00
17505;BME280;8870;50.950;11.762;2023-04-07T02:49:35;98344.94;;;1.45;100.00
17505;BME280;8870;50.950;11.762;2023-04-07T02:54:55;98353.22;;;1.41;100.00
17505;BME280;8870;50.950;11.762;2023-04-07T03:00:28;98346.31;;;1.38;100.00
17505;BME280;8870;50.950;11.762;2023-04-07T03:05:50;98349.19;;;1.35;100.00
17505;BME280;8870;50.950;11.762;2023-04-07T03:11:41;98349.41;;;1.32;100.00
17505;BME280;8870;50.950;11.762;2023-04-07T03:17:05;98342.59;;;1.28;100.00
17505;BME280;8870;50.950;11.762;2023-04-07T03:22:37;98343.72;;;1.23;100.00
17505;BME280;8870;50.950;11.762;2023-04-07T03:28:03;98347.00;;;1.14;100.00
17505;BME280;8870;50.950;11.762;2023-04-07T03:33:35;98343.84;;;1.09;100.00
17505;BME280;8870;50.950;11.762;2023-04-07T03:38:54;98338.94;;;1.03;100.00
17505;BME280;8870;50.950;11.762;2023-04-07T03:44:29;98338.50;;;0.96;100.00
17505;BME280;8870;50.950;11.762;2023-04-07T03:49:49;98334.44;;;0.90;100.00
17505;BME280;8870;50.950;11.762;2023-04-07T03:55:34;98332.22;;;0.84;100.00
17505;BME280;8870;50.950;11.762;2023-04-07T04:01:19;98333.56;;;0.77;100.00
17505;BME280;8870;50.950;11.762;2023-04-07T04:06:55;98331.63;;;0.66;100.00
17505;BME280;8870;50.950;11.762;2023-04-07T04:12:24;98329.66;;;0.55;100.00
17505;BME280;8870;50.950;11.762;2023-04-07T04:17:58;98332.44;;;0.54;100.00
17505;BME280;8870;50.950;11.762;2023-04-07T04:23:18;98340.88;;;0.46;100.00
17505;BME280;8870;50.950;11.762;2023-04-07T04:28:50;98336.72;;;0.42;100.00
17505;BME280;8870;50.950;11.762;2023-04-07T04:34:11;98347.25;;;0.43;100.00
17505;BME280;8870;50.950;11.762;2023-04-07T04:39:42;98339.81;;;0.49;100.00
17505;BME280;8870;50.950;11.762;2023-04-07T04:45:00;98342.41;;;0.50;100.00
17505;BME280;8870;50.950;11.762;2023-04-07T04:50:35;98346.06;;;0.48;100.00
17505;BME280;8870;50.950;11.762;2023-04-07T04:55:55;98349.78;;;0.45;100.00
17505;BME280;8870;50.950;11.762;2023-04-07T05:01:29;98359.09;;;0.38;100.00
17505;BME280;8870;50.950;11.762;2023-04-07T05:07:02;98350.38;;;0.36;100.00
17505;BME280;8870;50.950;11.762;2023-04-07T05:12:21;98346.44;;;0.28;100.00
17505;BME280;8870;50.950;11.762;2023-04-07T05:17:53;98346.31;;;0.30;100.00
17505;BME280;8870;50.950;11.762;2023-04-07T05:23:17;98359.47;;;0.32;100.00
17505;BME280;8870;50.950;11.762;2023-04-07T05:28:50;98338.25;;;0.32;100.00
17505;BME280;8870;50.950;11.762;2023-04-07T05:34:08;98331.06;;;0.34;100.00
17505;BME280;8870;50.950;11.762;2023-04-07T05:39:42;98344.31;;;0.34;100.00
17505;BME280;8870;50.950;11.762;2023-04-07T05:45:02;98338.72;;;0.38;100.00
17505;BME280;8870;50.950;11.762;2023-04-07T05:50:33;98334.75;;;0.45;100.00
17505;BME280;8870;50.950;11.762;2023-04-07T05:55:55;98348.22;;;0.55;100.00
17505;BME280;8870;50.950;11.762;2023-04-07T06:01:28;98351.78;;;0.69;100.00
17505;BME280;8870;50.950;11.762;2023-04-07T06:06:46;98349.19;;;0.82;100.00
17505;BME280;8870;50.950;11.762;2023-04-07T06:12:20;98356.97;;;0.98;100.00
17505;BME280;8870;50.950;11.762;2023-04-07T06:17:39;98355.22;;;1.11;100.00
17505;BME280;8870;50.950;11.762;2023-04-07T06:23:12;98360.41;;;1.26;100.00
17505;BME280;8870;50.950;11.762;2023-04-07T06:28:33;98361.81;;;1.44;100.00
17505;BME280;8870;50.950;11.762;2023-04-07T06:34:06;98352.59;;;1.63;100.00
17505;BME280;8870;50.950;11.762;2023-04-07T06:39:25;98356.38;;;1.84;100.00
17505;BME280;8870;50.950;11.762;2023-04-07T06:45:02;98358.72;;;2.02;100.00
17505;BME280;8870;50.950;11.762;2023-04-07T06:50:20;98359.31;;;2.19;100.00
17505;BME280;8870;50.950;11.762;2023-04-07T06:56:02;98350.13;;;2.36;100.00
17505;BME280;8870;50.950;11.762;2023-04-07T07:01:29;98346.97;;;2.55;100.00
17505;BME280;8870;50.950;11.762;2023-04-07T07:07:02;98353.50;;;2.75;100.00
17505;BME280;8870;50.950;11.762;2023-04-07T07:12:20;98349.84;;;3.00;100.00
17505;BME280;8870;50.950;11.762;2023-04-07T07:17:54;98362.56;;;3.32;100.00
17505;BME280;8870;50.950;11.762;2023-04-07T07:23:12;98357.88;;;3.59;100.00
17505;BME280;8870;50.950;11.762;2023-04-07T07:28:43;98355.00;;;3.84;100.00
17505;BME280;8870;50.950;11.762;2023-04-07T07:34:04;98361.69;;;4.13;100.00
17505;BME280;8870;50.950;11.762;2023-04-07T07:39:35;98358.47;;;4.42;100.00
17505;BME280;8870;50.950;11.762;2023-04-07T07:44:53;98366.69;;;4.73;100.00
17505;BME280;8870;50.950;11.762;2023-04-07T07:50:27;98365.38;;;5.00;100.00
17505;BME280;8870;50.950;11.762;2023-04-07T07:55:45;98364.94;;;5.37;100.00
17505;BME280;8870;50.950;11.762;2023-04-07T08:01:17;98368.47;;;5.59;100.00
17505;BME280;8870;50.950;11.762;2023-04-07T08:06:38;98367.22;;;5.84;100.00
17505;BME280;8870;50.950;11.762;2023-04-07T08:12:09;98371.06;;;6.12;100.00
17505;BME280;8870;50.950;11.762;2023-04-07T08:17:27;98387.53;;;6.48;100.00
17505;BME280;8870;50.950;11.762;2023-04-07T08:23:01;98387.03;;;6.74;100.00
17505;BME280;8870;50.950;11.762;2023-04-07T08:28:19;98379.16;;;7.02;97.41
17505;BME280;8870;50.950;11.762;2023-04-07T08:33:50;98380.16;;;7.21;94.56
17505;BME280;8870;50.950;11.762;2023-04-07T08:39:15;98383.00;;;7.39;83.49
17505;BME280;8870;50.950;11.762;2023-04-07T08:44:57;98384.09;;;7.56;80.47
17505;BME280;8870;50.950;11.762;2023-04-07T08:50:20;98382.53;;;7.73;81.98
17505;BME280;8870;50.950;11.762;2023-04-07T08:55:48;98381.31;;;7.95;74.68
17505;BME280;8870;50.950;11.762;2023-04-07T09:01:13;98383.69;;;8.08;78.15
17505;BME280;8870;50.950;11.762;2023-04-07T09:06:33;98393.81;;;8.24;80.88
17505;BME280;8870;50.950;11.762;2023-04-07T09:12:08;98382.34;;;8.32;78.28
17505;BME280;8870;50.950;11.762;2023-04-07T09:17:27;98388.50;;;8.42;77.33
17505;BME280;8870;50.950;11.762;2023-04-07T09:22:59;98384.59;;;8.64;70.27
17505;BME280;8870;50.950;11.762;2023-04-07T09:28:21;98383.81;;;8.82;64.47
17505;BME280;8870;50.950;11.762;2023-04-07T09:33:53;98374.81;;;8.91;63.33
17505;BME280;8870;50.950;11.762;2023-04-07T09:39:13;98374.00;;;9.09;66.37
17505;BME280;8870;50.950;11.762;2023-04-07T09:44:49;98377.53;;;9.28;65.96
17505;BME280;8870;50.950;11.762;2023-04-07T09:50:07;98380.03;;;9.47;66.56
17505;BME280;8870;50.950;11.762;2023-04-07T09:55:41;98380.34;;;9.62;63.90
17505;BME280;8870;50.950;11.762;2023-04-07T10:01:09;98373.72;;;9.75;64.09
17505;BME280;8870;50.950;11.762;2023-04-07T10:06:41;98373.66;;;10.19;64.41
17505;BME280;8870;50.950;11.762;2023-04-07T10:11:59;98366.91;;;10.23;60.55
17505;BME280;8870;50.950;11.762;2023-04-07T10:17:35;98366.91;;;10.23;57.83
17505;BME280;8870;50.950;11.762;2023-04-07T10:22:54;98362.78;;;10.29;61.67
17505;BME280;8870;50.950;11.762;2023-04-07T10:28:37;98368.19;;;10.37;56.45
17505;BME280;8870;50.950;11.762;2023-04-07T10:34:01;98368.94;;;10.47;58.79
17505;BME280;8870;50.950;11.762;2023-04-07T10:39:32;98374.22;;;10.66;59.60
17505;BME280;8870;50.950;11.762;2023-04-07T10:44:51;98360.78;;;10.74;60.28
17505;BME280;8870;50.950;11.762;2023-04-07T10:50:26;98356.25;;;10.83;56.94
17505;BME280;8870;50.950;11.762;2023-04-07T10:55:58;98356.44;;;11.06;57.68
17505;BME280;8870;50.950;11.762;2023-04-07T11:01:18;98361.84;;;11.06;59.06
17505;BME280;8870;50.950;11.762;2023-04-07T11:06:53;98363.88;;;11.04;55.48
17505;BME280;8870;50.950;11.762;2023-04-07T11:12:23;98363.03;;;11.12;54.85
17505;BME280;8870;50.950;11.762;2023-04-07T11:18:10;98363.38;;;11.25;56.30
17505;BME280;8870;50.950;11.762;2023-04-07T11:23:37;98355.16;;;11.35;57.43
17505;BME280;8870;50.950;11.762;2023-04-07T11:29:10;98353.13;;;11.45;56.95
17505;BME280;8870;50.950;11.762;2023-04-07T11:34:28;98360.03;;;11.56;58.05
17505;BME280;8870;50.950;11.762;2023-04-07T11:40:05;98372.69;;;11.55;55.76
17505;BME280;8870;50.950;11.762;2023-04-07T11:45:23;98371.53;;;11.58;56.72
17505;BME280;8870;50.950;11.762;2023-04-07T11:50:55;98367.78;;;11.59;54.98
17505;BME280;8870;50.950;11.762;2023-04-07T11:56:16;98374.00;;;11.76;57.31
17505;BME280;8870;50.950;11.762;2023-04-07T12:01:50;98359.00;;;11.74;54.89
17505;BME280;8870;50.950;11.762;2023-04-07T12:07:21;98355.00;;;11.45;53.39
17505;BME280;8870;50.950;11.762;2023-04-07T12:12:44;98363.75;;;11.80;55.51
17505;BME280;8870;50.950;11.762;2023-04-07T12:18:16;98364.91;;;12.10;55.57
17505;BME280;8870;50.950;11.762;2023-04-07T12:23:35;98361.47;;;12.33;55.92
17505;BME280;8870;50.950;11.762;2023-04-07T12:29:11;98364.28;;;12.48;51.79
17505;BME280;8870;50.950;11.762;2023-04-07T12:34:29;98356.59;;;12.68;52.40
17505;BME280;8870;50.950;11.762;2023-04-07T12:40:01;98362.06;;;12.83;53.18
17505;BME280;8870;50.950;11.762;2023-04-07T12:45:22;98364.66;;;13.00;53.38
17505;BME280;8870;50.950;11.762;2023-04-07T12:50:54;98368.66;;;13.12;50.95
17505;BME280;8870;50.950;11.762;2023-04-07T12:56:12;98365.75;;;12.90;52.38
17505;BME280;8870;50.950;11.762;2023-04-07T13:01:46;98363.25;;;13.12;49.89
17505;BME280;8870;50.950;11.762;2023-04-07T13:07:04;98369.63;;;12.56;49.92
17505;BME280;8870;50.950;11.762;2023-04-07T13:12:35;98364.16;;;12.25;47.64
17505;BME280;8870;50.950;11.762;2023-04-07T13:17:58;98367.94;;;12.55;50.69
17505;BME280;8870;50.950;11.762;2023-04-07T13:23:31;98364.97;;;12.33;46.96
17505;BME280;8870;50.950;11.762;2023-04-07T13:28:51;98364.31;;;13.03;50.41
17505;BME280;8870;50.950;11.762;2023-04-07T13:34:26;98359.63;;;13.20;48.82
17505;BME280;8870;50.950;11.762;2023-04-07T13:39:44;98351.22;;;13.46;49.45
17505;BME280;8870;50.950;11.762;2023-04-07T13:45:15;98356.47;;;13.63;47.25
17505;BME280;8870;50.950;11.762;2023-04-07T13:50:37;98350.56;;;13.97;47.23
17505;BME280;8870;50.950;11.762;2023-04-07T13:56:10;98352.16;;;13.92;47.04
17505;BME280;8870;50.950;11.762;2023-04-07T14:01:28;98358.50;;;13.61;49.49
17505;BME280;8870;50.950;11.762;2023-04-07T14:07:04;98351.97;;;14.08;46.22
17505;BME280;8870;50.950;11.762;2023-04-07T14:12:35;98353.56;;;14.17;44.08
17505;BME280;8870;50.950;11.762;2023-04-07T14:17:53;98350.78;;;14.11;49.22
17505;BME280;8870;50.950;11.762;2023-04-07T14:23:27;98352.53;;;14.48;47.15
17505;BME280;8870;50.950;11.762;2023-04-07T14:28:46;98343.81;;;14.83;47.04
17505;BME280;8870;50.950;11.762;2023-04-07T14:34:17;98342.50;;;15.16;46.63
17505;BME280;8870;50.950;11.762;2023-04-07T14:39:38;98351.44;;;15.31;44.93
17505;BME280;8870;50.950;11.762;2023-04-07T14:45:17;98356.13;;;15.44;44.46
17505;BME280;8870;50.950;11.762;2023-04-07T14:50:35;98354.25;;;15.23;45.35
17505;BME280;8870;50.950;11.762;2023-04-07T14:56:26;98357.13;;;14.63;45.34
17505;BME280;8870;50.950;11.762;2023-04-07T15:01:44;98362.34;;;14.49;48.85
17505;BME280;8870;50.950;11.762;2023-04-07T15:07:15;98363.00;;;14.37;46.57
17505;BME280;8870;50.950;11.762;2023-04-07T15:12:36;98355.16;;;14.72;45.81
17505;BME280;8870;50.950;11.762;2023-04-07T15:18:07;98360.00;;;14.91;45.44
17505;BME280;8870;50.950;11.762;2023-04-07T15:23:25;98355.00;;;14.95;47.14
17505;BME280;8870;50.950;11.762;2023-04-07T15:29:01;98359.78;;;14.93;44.28
17505;BME280;8870;50.950;11.762;2023-04-07T15:34:19;98367.47;;;14.89;46.44
17505;BME280;8870;50.950;11.762;2023-04-07T15:39:50;98372.16;;;14.66;44.98
17505;BME280;8870;50.950;11.762;2023-04-07T15:45:11;98368.81;;;15.00;44.33
17505;BME280;8870;50.950;11.762;2023-04-07T15:50:42;98375.91;;;14.49;44.01
17505;BME280;8870;50.950;11.762;2023-04-07T15:56:00;98374.31;;;14.55;44.22
17505;BME280;8870;50.950;11.762;2023-04-07T16:01:34;98383.13;;;13.89;44.35
17505;BME280;8870;50.950;11.762;2023-04-07T16:06:59;98379.47;;;14.35;45.73
17505;BME280;8870;50.950;11.762;2023-04-07T16:12:30;98394.34;;;14.39;43.66
17505;BME280;8870;50.950;11.762;2023-04-07T16:17:51;98386.19;;;14.39;44.64
17505;BME280;8870;50.950;11.762;2023-04-07T16:23:22;98399.81;;;14.16;45.43
17505;BME280;8870;50.950;11.762;2023-04-07T16:28:40;98401.91;;;13.52;47.21
17505;BME280;8870;50.950;11.762;2023-04-07T16:34:14;98407.66;;;12.94;44.54
17505;BME280;8870;50.950;11.762;2023-04-07T16:39:32;98416.19;;;12.75;48.35
17505;BME280;8870;50.950;11.762;2023-04-07T16:45:05;98406.81;;;12.46;47.23
17505;BME280;8870;50.950;11.762;2023-04-07T16:50:26;98414.59;;;12.41;48.28
17505;BME280;8870;50.950;11.762;2023-04-07T16:55:57;98417.88;;;12.20;48.25
17505;BME280;8870;50.950;11.762;2023-04-07T17:01:16;98421.59;;;12.02;49.59
17505;BME280;8870;50.950;11.762;2023-04-07T17:06:50;98427.50;;;11.64;49.63
17505;BME280;8870;50.950;11.762;2023-04-07T17:12:08;98428.28;;;11.32;51.59
17505;BME280;8870;50.950;11.762;2023-04-07T17:17:39;98426.41;;;11.16;52.25
17505;BME280;8870;50.950;11.762;2023-04-07T17:23:00;98439.13;;;10.89;53.13
17505;BME280;8870;50.950;11.762;2023-04-07T17:28:32;98452.88;;;10.69;53.36
17505;BME280;8870;50.950;11.762;2023-04-07T17:33:50;98455.25;;;10.72;53.70
17505;BME280;8870;50.950;11.762;2023-04-07T17:39:25;98460.44;;;10.66;53.17
17505;BME280;8870;50.950;11.762;2023-04-07T17:44:43;98456.50;;;10.52;54.20
17505;BME280;8870;50.950;11.762;2023-04-07T17:50:16;98467.63;;;10.30;54.83
17505;BME280;8870;50.950;11.762;2023-04-07T17:55:37;98468.34;;;10.14;55.99
17505;BME280;8870;50.950;11.762;2023-04-07T18:01:08;98468.25;;;9.80;56.91
17505;BME280;8870;50.950;11.762;2023-04-07T18:06:34;98488.06;;;9.61;58.23
17505;BME280;8870;50.950;11.762;2023-04-07T18:12:08;98487.06;;;9.25;60.77
17505;BME280;8870;50.950;11.762;2023-04-07T18:17:27;98493.72;;;9.03;64.25
17505;BME280;8870;50.950;11.762;2023-04-07T18:22:59;98503.94;;;8.90;67.92
17505;BME280;8870;50.950;11.762;2023-04-07T18:28:20;98500.34;;;8.71;70.54
17505;BME280;8870;50.950;11.762;2023-04-07T18:33:52;98513.41;;;8.56;75.68
17505;BME280;8870;50.950;11.762;2023-04-07T18:39:10;98515.41;;;8.35;84.25
17505;BME280;8870;50.950;11.762;2023-04-07T18:44:45;98510.91;;;8.25;88.93
17505;BME280;8870;50.950;11.762;2023-04-07T18:50:04;98520.13;;;8.13;92.72
17505;BME280;8870;50.950;11.762;2023-04-07T18:55:36;98530.00;;;8.02;92.85
17505;BME280;8870;50.950;11.762;2023-04-07T19:00:57;98531.28;;;7.98;98.59
17505;BME280;8870;50.950;11.762;2023-04-07T19:06:28;98534.94;;;7.97;94.81
17505;BME280;8870;50.950;11.762;2023-04-07T19:12:00;98536.34;;;7.92;92.03
17505;BME280;8870;50.950;11.762;2023-04-07T19:17:21;98532.41;;;7.86;93.72
17505;BME280;8870;50.950;11.762;2023-04-07T19:22:53;98549.34;;;7.57;100.00
17505;BME280;8870;50.950;11.762;2023-04-07T19:28:11;98550.44;;;7.45;100.00
17505;BME280;8870;50.950;11.762;2023-04-07T19:33:45;98563.22;;;7.21;100.00
17505;BME280;8870;50.950;11.762;2023-04-07T19:39:03;98560.88;;;6.97;100.00
17505;BME280;8870;50.950;11.762;2023-04-07T19:44:34;98578.44;;;6.80;100.00
17505;BME280;8870;50.950;11.762;2023-04-07T19:49:55;98582.69;;;6.61;100.00
17505;BME280;8870;50.950;11.762;2023-04-07T19:55:27;98586.16;;;6.52;100.00
17505;BME280;8870;50.950;11.762;2023-04-07T20:00:45;98590.28;;;6.35;100.00
17505;BME280;8870;50.950;11.762;2023-04-07T20:06:19;98599.59;;;6.20;100.00
17505;BME280;8870;50.950;11.762;2023-04-07T20:11:41;98599.78;;;6.07;100.00
17505;BME280;8870;50.950;11.762;2023-04-07T20:17:13;98597.25;;;5.94;100.00
17505;BME280;8870;50.950;11.762;2023-04-07T20:22:37;98597.16;;;5.84;100.00
17505;BME280;8870;50.950;11.762;2023-04-07T20:28:07;98611.88;;;5.78;100.00
17505;BME280;8870;50.950;11.762;2023-04-07T20:33:40;98605.31;;;5.71;100.00
17505;BME280;8870;50.950;11.762;2023-04-07T20:39:14;98614.69;;;5.65;100.00
17505;BME280;8870;50.950;11.762;2023-04-07T20:44:34;98616.41;;;5.66;100.00
17505;BME280;8870;50.950;11.762;2023-04-07T20:50:08;98622.38;;;5.70;100.00
17505;BME280;8870;50.950;11.762;2023-04-07T20:55:31;98624.03;;;5.71;100.00
17505;BME280;8870;50.950;11.762;2023-04-07T21:01:06;98622.09;;;5.73;100.00
17505;BME280;8870;50.950;11.762;2023-04-07T21:06:25;98627.34;;;5.75;100.00
17505;BME280;8870;50.950;11.762;2023-04-07T21:12:00;98624.38;;;5.78;100.00
17505;BME280;8870;50.950;11.762;2023-04-07T21:17:19;98619.19;;;5.76;100.00
17505;BME280;8870;50.950;11.762;2023-04-07T21:28:19;98627.44;;;5.73;100.00
17505;BME280;8870;50.950;11.762;2023-04-07T21:33:51;98625.88;;;5.70;100.00
17505;BME280;8870;50.950;11.762;2023-04-07T21:39:10;98621.63;;;5.68;100.00
17505;BME280;8870;50.950;11.762;2023-04-07T21:44:47;98637.19;;;5.63;100.00
17505;BME280;8870;50.950;11.762;2023-04-07T21:50:20;98642.53;;;5.63;100.00
17505;BME280;8870;50.950;11.762;2023-04-07T21:55:51;98633.91;;;5.59;100.00
17505;BME280;8870;50.950;11.762;2023-04-07T22:01:13;98633.19;;;5.57;100.00
17505;BME280;8870;50.950;11.762;2023-04-07T22:06:45;98641.56;;;5.52;100.00
17505;BME280;8870;50.950;11.762;2023-04-07T22:12:04;98644.50;;;5.49;100.00
17505;BME280;8870;50.950;11.762;2023-04-07T22:17:39;98654.34;;;5.49;100.00
17505;BME280;8870;50.950;11.762;2023-04-07T22:22:58;98647.16;;;5.49;100.00
17505;BME280;8870;50.950;11.762;2023-04-07T22:28:29;98649.38;;;5.44;100.00
17505;BME280;8870;50.950;11.762;2023-04-07T22:33:54;98652.66;;;5.36;100.00
17505;BME280;8870;50.950;11.762;2023-04-07T22:39:38;98651.19;;;5.32;100.00
17505;BME280;8870;50.950;11.762;2023-04-07T22:44:58;98653.03;;;5.20;100.00
17505;BME280;8870;50.950;11.762;2023-04-07T22:50:33;98648.66;;;5.31;100.00
17505;BME280;8870;50.950;11.762;2023-04-07T22:55:52;98665.16;;;5.13;100.00
17505;BME280;8870;50.950;11.762;2023-04-07T23:01:23;98669.88;;;5.21;100.00
17505;BME280;8870;50.950;11.762;2023-04-07T23:06:57;98669.06;;;5.20;100.00
17505;BME280;8870;50.950;11.762;2023-04-07T23:12:28;98669.28;;;5.17;100.00
17505;BME280;8870;50.950;11.762;2023-04-07T23:17:59;98677.91;;;5.09;100.00
17505;BME280;8870;50.950;11.762;2023-04-07T23:23:21;98679.00;;;5.07;100.00
17505;BME280;8870;50.950;11.762;2023-04-07T23:28:52;98676.78;;;5.01;100.00
17505;BME280;8870;50.950;11.762;2023-04-07T23:34:10;98679.94;;;4.94;100.00
17505;BME280;8870;50.950;11.762;2023-04-07T23:39:45;98685.53;;;4.91;100.00
17505;BME280;8870;50.950;11.762;2023-04-07T23:45:05;98687.72;;;4.86;100.00
17505;BME280;8870;50.950;11.762;2023-04-07T23:50:36;98700.09;;;4.87;100.00
17505;BME280;8870;50.950;11.762;2023-04-07T23:55:57;98699.47;;;4.84;100.00
